createdAt,value
2018-12-18T00:01:01.020Z,3.59
2018-12-18T00:04:04.390Z,3.63
2018-12-18T00:07:07.649Z,3.70
2018-12-18T00:10:10.946Z,3.77
2018-12-18T00:13:14.213Z,3.81
2018-12-18T00:16:17.578Z,3.80
2018-12-18T00:19:20.796Z,3.89
2018-12-18T00:22:24.047Z,3.91
2018-12-18T00:25:27.317Z,3.89
2018-12-18T00:28:30.540Z,3.90
2018-12-18T00:31:35.056Z,3.84
2018-12-18T00:34:38.308Z,3.78
2018-12-18T00:37:41.541Z,3.85
2018-12-18T00:40:44.797Z,3.90
2018-12-18T00:43:48.062Z,3.90
2018-12-18T00:46:51.297Z,3.91
2018-12-18T00:49:54.524Z,3.90
2018-12-18T00:52:57.749Z,3.88
2018-12-18T00:56:00.985Z,3.86
2018-12-18T00:59:04.271Z,3.81
2018-12-18T01:02:07.534Z,3.81
2018-12-18T01:05:10.807Z,3.82
2018-12-18T01:08:14.121Z,3.83
2018-12-18T01:11:17.785Z,3.81
2018-12-18T01:14:21.047Z,3.78
2018-12-18T01:17:24.356Z,3.83
2018-12-18T01:20:27.587Z,3.79
2018-12-18T01:23:31.037Z,3.74
2018-12-18T01:26:34.238Z,3.67
2018-12-18T01:29:37.505Z,3.60
2018-12-18T01:35:50.264Z,3.39
2018-12-18T01:38:53.489Z,3.29
2018-12-18T01:41:56.755Z,3.22
2018-12-18T01:44:59.985Z,3.16
2018-12-18T01:48:03.209Z,3.07
2018-12-18T01:51:06.526Z,2.99
2018-12-18T01:54:09.752Z,3.01
2018-12-18T01:57:12.985Z,2.90
2018-12-18T02:00:16.304Z,2.85
2018-12-18T02:03:19.637Z,2.79
2018-12-18T02:06:22.958Z,2.80
2018-12-18T02:09:26.188Z,2.60
2018-12-18T02:12:29.413Z,2.60
2018-12-18T02:15:32.649Z,2.61
2018-12-18T02:18:35.880Z,2.62
2018-12-18T02:21:39.108Z,2.61
2018-12-18T02:24:42.341Z,2.57
2018-12-18T02:27:45.567Z,2.45
2018-12-18T02:30:48.789Z,2.30
2018-12-18T02:33:52.022Z,2.50
2018-12-18T02:36:55.245Z,2.35
2018-12-18T02:39:58.473Z,2.32
2018-12-18T02:43:01.775Z,2.28
2018-12-18T02:46:05.080Z,2.19
2018-12-18T02:49:08.311Z,2.23
2018-12-18T02:52:11.569Z,2.20
2018-12-18T02:55:15.764Z,2.32
2018-12-18T02:58:19.024Z,2.20
2018-12-18T03:01:22.260Z,2.27
2018-12-18T03:04:25.584Z,2.12
2018-12-18T03:07:28.902Z,2.07
2018-12-18T03:10:32.144Z,2.00
2018-12-18T03:13:35.364Z,2.01
2018-12-18T03:16:38.660Z,2.10
2018-12-18T03:19:41.868Z,2.01
2018-12-18T03:22:45.106Z,1.86
2018-12-18T03:25:48.333Z,1.75
2018-12-18T03:28:52.116Z,1.66
2018-12-18T03:31:56.183Z,1.57
2018-12-18T03:34:59.418Z,1.43
2018-12-18T03:38:02.663Z,1.39
2018-12-18T03:41:06.052Z,1.44
2018-12-18T03:44:09.284Z,1.55
2018-12-18T03:47:12.514Z,1.63
2018-12-18T03:50:15.802Z,1.52
2018-12-18T03:53:19.028Z,1.44
2018-12-18T03:56:22.258Z,1.43
2018-12-18T03:59:25.490Z,1.35
2018-12-18T04:02:28.718Z,1.41
2018-12-18T04:05:31.970Z,1.34
2018-12-18T04:08:35.293Z,1.36
2018-12-18T04:11:40.466Z,1.46
2018-12-18T04:14:43.695Z,1.48
2018-12-18T04:17:46.917Z,1.46
2018-12-18T04:20:50.147Z,1.40
2018-12-18T04:23:53.389Z,1.24
2018-12-18T04:26:56.732Z,1.17
2018-12-18T04:29:59.964Z,1.33
2018-12-18T04:33:03.197Z,1.25
2018-12-18T04:36:06.434Z,1.19
2018-12-18T04:39:09.652Z,1.29
2018-12-18T04:42:12.893Z,1.26
2018-12-18T04:45:16.123Z,1.26
2018-12-18T04:48:19.362Z,1.18
2018-12-18T04:51:22.746Z,1.10
2018-12-18T04:54:26.054Z,1.06
2018-12-18T04:57:29.371Z,1.19
2018-12-18T05:00:32.630Z,1.23
2018-12-18T05:03:35.897Z,1.12
2018-12-18T05:06:39.293Z,1.07
2018-12-18T05:09:42.524Z,1.15
2018-12-18T05:12:45.763Z,1.12
2018-12-18T05:15:49.073Z,1.15
2018-12-18T05:18:52.301Z,1.14
2018-12-18T05:21:55.571Z,1.04
2018-12-18T05:24:58.785Z,1.07
2018-12-18T05:28:02.014Z,0.99
2018-12-18T05:31:05.246Z,1.09
2018-12-18T05:34:08.568Z,1.01
2018-12-18T05:37:11.784Z,0.93
2018-12-18T05:40:15.017Z,0.86
2018-12-18T05:43:18.271Z,0.78
2018-12-18T05:46:21.553Z,0.76
2018-12-18T05:49:24.763Z,0.70
2018-12-18T05:52:28.078Z,0.67
2018-12-18T05:55:31.307Z,0.69
2018-12-18T05:58:34.538Z,0.71
2018-12-18T06:01:37.854Z,0.76
2018-12-18T06:04:41.128Z,0.76
2018-12-18T06:07:44.359Z,0.71
2018-12-18T06:10:47.585Z,0.71
2018-12-18T06:13:50.849Z,0.68
2018-12-18T06:16:54.116Z,0.76
2018-12-18T06:19:57.332Z,0.73
2018-12-18T06:23:00.605Z,0.67
2018-12-18T06:26:03.843Z,0.64
2018-12-18T06:29:07.065Z,0.74
2018-12-18T06:32:10.320Z,0.83
2018-12-18T06:35:13.658Z,0.75
2018-12-18T06:38:16.869Z,0.63
2018-12-18T06:41:20.186Z,0.58
2018-12-18T06:44:23.392Z,0.59
2018-12-18T06:47:26.675Z,0.60
2018-12-18T06:50:29.886Z,0.66
2018-12-18T06:53:33.101Z,0.65
2018-12-18T06:56:36.481Z,0.64
2018-12-18T06:59:39.717Z,0.67
2018-12-18T07:02:42.961Z,0.58
2018-12-18T07:05:46.212Z,0.64
2018-12-18T07:08:49.474Z,0.66
2018-12-18T07:11:52.738Z,0.72
2018-12-18T07:14:55.965Z,0.72
2018-12-18T07:17:59.194Z,0.72
2018-12-18T07:21:02.442Z,0.75
2018-12-18T07:24:05.727Z,0.97
2018-12-18T07:27:08.974Z,1.07
2018-12-18T07:30:12.255Z,1.18
2018-12-18T07:33:15.514Z,1.17
2018-12-18T07:36:18.752Z,1.29
2018-12-18T07:39:22.000Z,1.31
2018-12-18T07:42:25.261Z,1.32
2018-12-18T07:45:28.496Z,1.35
2018-12-18T07:48:31.729Z,1.36
2018-12-18T07:51:35.010Z,1.42
2018-12-18T07:54:38.224Z,1.47
2018-12-18T07:57:41.488Z,1.50
2018-12-18T08:00:44.792Z,1.56
2018-12-18T08:03:48.092Z,1.60
2018-12-18T08:06:51.350Z,1.66
2018-12-18T08:09:54.586Z,1.85
2018-12-18T08:12:57.892Z,1.90
2018-12-18T08:16:01.211Z,1.93
2018-12-18T08:19:04.503Z,1.95
2018-12-18T08:22:07.734Z,2.00
2018-12-18T08:25:11.069Z,2.09
2018-12-18T08:28:14.304Z,2.22
2018-12-18T08:31:17.541Z,2.31
2018-12-18T08:34:20.778Z,2.40
2018-12-18T08:37:24.004Z,2.43
2018-12-18T08:40:27.229Z,2.43
2018-12-18T08:43:30.465Z,2.50
2018-12-18T08:46:33.722Z,2.44
2018-12-18T08:49:36.953Z,2.40
2018-12-18T08:52:40.276Z,2.47
2018-12-18T08:55:43.934Z,2.59
2018-12-18T08:58:47.244Z,2.61
2018-12-18T09:01:50.525Z,2.84
2018-12-18T09:04:53.753Z,2.87
2018-12-18T09:07:57.001Z,2.94
2018-12-18T09:11:00.245Z,3.00
2018-12-18T09:14:03.517Z,3.00
2018-12-18T09:17:07.781Z,3.03
2018-12-18T09:20:11.021Z,3.16
2018-12-18T09:23:14.315Z,3.30
2018-12-18T09:26:17.548Z,3.48
2018-12-18T09:29:20.872Z,4.02
2018-12-18T09:32:24.281Z,4.24
2018-12-18T09:35:27.609Z,4.52
2018-12-18T09:38:36.339Z,4.95
2018-12-18T09:41:39.890Z,5.27
2018-12-18T09:44:43.259Z,5.18
2018-12-18T09:47:46.509Z,4.83
2018-12-18T09:50:49.776Z,4.64
2018-12-18T09:53:53.005Z,4.42
2018-12-18T10:00:22.669Z,4.23
2018-12-18T10:03:26.098Z,4.27
2018-12-18T10:06:29.436Z,4.25
2018-12-18T10:09:32.705Z,4.31
2018-12-18T10:12:41.516Z,4.26
2018-12-18T10:15:44.772Z,4.30
2018-12-18T10:18:48.941Z,4.29
2018-12-18T10:21:52.380Z,4.39
2018-12-18T10:24:55.645Z,4.50
2018-12-18T10:27:59.029Z,4.53
2018-12-18T10:31:02.278Z,4.62
2018-12-18T10:34:05.573Z,4.81
2018-12-18T10:37:08.862Z,4.93
2018-12-18T10:40:12.181Z,5.01
2018-12-18T10:43:15.504Z,5.05
2018-12-18T10:46:18.873Z,5.63
2018-12-18T10:49:22.117Z,6.41
2018-12-18T10:52:25.414Z,6.96
2018-12-18T10:55:28.692Z,7.13
2018-12-18T10:58:31.970Z,7.02
2018-12-18T11:01:47.685Z,6.56
2018-12-18T11:04:50.924Z,6.93
2018-12-18T11:07:54.287Z,7.63
2018-12-18T11:10:57.520Z,7.80
2018-12-18T11:14:00.814Z,7.85
2018-12-18T11:17:04.170Z,7.78
2018-12-18T11:20:07.503Z,8.28
2018-12-18T11:23:10.822Z,9.27
2018-12-18T11:26:14.086Z,9.66
2018-12-18T11:29:17.391Z,10.27
2018-12-18T11:32:20.673Z,10.45
2018-12-18T11:35:23.911Z,9.64
2018-12-18T11:38:27.202Z,9.66
2018-12-18T11:41:30.437Z,9.87
2018-12-18T11:44:33.667Z,9.82
2018-12-18T11:47:36.935Z,10.72
2018-12-18T11:50:40.206Z,11.39
2018-12-18T11:53:43.491Z,11.49
2018-12-18T11:56:46.784Z,11.26
2018-12-18T11:59:50.030Z,11.95
2018-12-18T12:02:53.416Z,12.20
2018-12-18T12:05:56.662Z,11.84
2018-12-18T12:09:00.093Z,11.60
2018-12-18T12:12:03.365Z,11.92
2018-12-18T12:15:06.824Z,11.85
2018-12-18T12:18:10.100Z,11.98
2018-12-18T12:21:13.383Z,11.64
2018-12-18T12:24:16.646Z,11.21
2018-12-18T12:27:25.672Z,11.00
2018-12-18T12:30:30.002Z,11.21
2018-12-18T12:33:33.305Z,10.78
2018-12-18T12:36:36.530Z,10.53
2018-12-18T12:39:39.820Z,10.45
2018-12-18T12:42:43.061Z,10.86
2018-12-18T12:45:46.316Z,11.28
2018-12-18T12:48:54.702Z,10.71
2018-12-18T12:51:58.013Z,10.28
2018-12-18T12:55:01.248Z,10.28
2018-12-18T12:58:04.505Z,10.15
2018-12-18T13:01:07.741Z,10.60
2018-12-18T13:04:10.975Z,10.15
2018-12-18T13:07:14.201Z,10.52
2018-12-18T13:10:17.437Z,10.68
2018-12-18T13:13:20.701Z,10.49
2018-12-18T13:16:23.932Z,10.73
2018-12-18T13:19:27.173Z,10.96
2018-12-18T13:22:30.432Z,11.00
2018-12-18T13:25:33.749Z,11.31
2018-12-18T13:28:37.000Z,11.43
2018-12-18T13:31:40.250Z,12.03
2018-12-18T13:34:43.523Z,12.62
2018-12-18T13:37:46.855Z,12.51
2018-12-18T13:40:50.080Z,12.44
2018-12-18T13:43:53.401Z,12.35
2018-12-18T13:46:56.633Z,12.24
2018-12-18T13:49:59.869Z,12.46
2018-12-18T13:53:03.093Z,12.30
2018-12-18T13:56:06.416Z,12.31
2018-12-18T13:59:09.681Z,12.30
2018-12-18T14:02:12.921Z,11.82
2018-12-18T14:05:16.191Z,11.30
2018-12-18T14:08:19.445Z,10.50
2018-12-18T14:11:22.685Z,10.15
2018-12-18T14:14:25.917Z,10.00
2018-12-18T14:17:29.172Z,9.84
2018-12-18T14:20:32.406Z,9.42
2018-12-18T14:23:35.707Z,9.24
2018-12-18T14:26:38.958Z,8.97
2018-12-18T14:29:42.183Z,8.92
2018-12-18T14:32:45.425Z,8.86
2018-12-18T14:35:48.652Z,8.75
2018-12-18T14:38:51.876Z,8.65
2018-12-18T14:41:55.141Z,8.53
2018-12-18T14:44:58.365Z,8.34
2018-12-18T14:48:01.588Z,8.23
2018-12-18T14:51:04.845Z,8.14
2018-12-18T14:54:08.072Z,8.02
2018-12-18T14:57:11.306Z,7.66
2018-12-18T15:00:14.537Z,7.40
2018-12-18T15:03:17.756Z,7.19
2018-12-18T15:06:21.077Z,6.89
2018-12-18T15:09:24.345Z,6.74
2018-12-18T15:12:27.574Z,6.65
2018-12-18T15:15:30.905Z,6.51
2018-12-18T15:18:34.184Z,6.36
2018-12-18T15:21:37.414Z,6.30
2018-12-18T15:24:40.672Z,6.21
2018-12-18T15:27:43.949Z,6.23
2018-12-18T15:30:47.202Z,6.18
2018-12-18T15:33:50.504Z,6.00
2018-12-18T15:36:53.716Z,5.91
2018-12-18T15:39:57.038Z,5.72
2018-12-18T15:43:00.287Z,5.62
2018-12-18T15:46:03.554Z,5.64
2018-12-18T15:49:06.773Z,5.54
2018-12-18T15:52:10.093Z,5.48
2018-12-18T15:55:13.383Z,5.54
2018-12-18T15:58:16.693Z,5.57
2018-12-18T16:01:19.928Z,5.46
2018-12-18T16:04:23.269Z,5.23
2018-12-18T16:07:26.488Z,5.22
2018-12-18T16:10:29.725Z,5.33
2018-12-18T16:13:32.947Z,5.30
2018-12-18T16:16:36.231Z,5.31
2018-12-18T16:19:39.552Z,5.22
2018-12-18T16:22:42.775Z,5.23
2018-12-18T16:25:46.011Z,5.32
2018-12-18T16:28:49.236Z,5.22
2018-12-18T16:31:52.462Z,5.21
2018-12-18T16:34:55.694Z,5.06
2018-12-18T16:37:58.912Z,4.94
2018-12-18T16:41:02.141Z,5.05
2018-12-18T16:44:05.389Z,4.93
2018-12-18T16:47:08.618Z,4.94
2018-12-18T16:50:11.873Z,4.90
2018-12-18T16:53:15.098Z,4.86
2018-12-18T16:56:18.358Z,4.82
2018-12-18T16:59:21.673Z,4.55
2018-12-18T17:02:24.940Z,4.44
2018-12-18T17:05:28.175Z,4.42
2018-12-18T17:08:32.220Z,4.30
2018-12-18T17:11:35.809Z,4.30
2018-12-18T17:14:39.064Z,4.43
2018-12-18T17:17:42.315Z,4.40
2018-12-18T17:20:45.545Z,4.35
2018-12-18T17:23:48.769Z,4.39
2018-12-18T17:26:52.025Z,4.44
2018-12-18T17:29:55.282Z,4.56
2018-12-18T17:32:58.497Z,4.57
2018-12-18T17:36:01.765Z,4.31
2018-12-18T17:39:07.222Z,4.18
2018-12-18T17:42:10.427Z,4.18
2018-12-18T17:45:13.690Z,4.11
2018-12-18T17:48:16.912Z,4.06
2018-12-18T17:51:20.145Z,4.11
2018-12-18T17:54:23.364Z,4.14
2018-12-18T17:57:26.592Z,3.95
2018-12-18T18:00:29.845Z,3.77
2018-12-18T18:03:33.061Z,3.52
2018-12-18T18:06:36.285Z,3.37
2018-12-18T18:09:39.513Z,3.16
2018-12-18T18:12:42.741Z,3.09
2018-12-18T18:15:46.004Z,3.15
2018-12-18T18:18:49.367Z,2.96
2018-12-18T18:21:52.589Z,2.95
2018-12-18T18:24:55.868Z,2.96
2018-12-18T18:27:59.108Z,2.90
2018-12-18T18:31:02.469Z,2.73
2018-12-18T18:34:05.752Z,2.66
2018-12-18T18:37:08.971Z,2.68
2018-12-18T18:40:12.329Z,2.71
2018-12-18T18:43:15.557Z,2.81
2018-12-18T18:46:18.878Z,2.62
2018-12-18T18:49:22.133Z,2.67
2018-12-18T18:52:25.358Z,2.57
2018-12-18T18:55:28.585Z,2.64
2018-12-18T18:58:31.815Z,2.78
2018-12-18T19:01:35.065Z,2.90
2018-12-18T19:04:38.324Z,2.87
2018-12-18T19:07:41.587Z,2.70
2018-12-18T19:10:44.837Z,2.55
2018-12-18T19:13:48.078Z,2.53
2018-12-18T19:16:51.351Z,2.54
2018-12-18T19:19:54.569Z,2.61
2018-12-18T19:22:57.817Z,2.74
2018-12-18T19:26:01.054Z,2.84
2018-12-18T19:29:04.307Z,2.87
2018-12-18T19:32:07.542Z,2.92
2018-12-18T19:35:10.845Z,2.98
2018-12-18T19:38:14.075Z,3.06
2018-12-18T19:41:17.332Z,2.91
2018-12-18T19:44:20.561Z,2.87
2018-12-18T19:47:23.820Z,2.86
2018-12-18T19:50:27.072Z,2.81
2018-12-18T19:53:30.302Z,2.70
2018-12-18T19:56:33.580Z,2.75
2018-12-18T19:59:36.870Z,2.61
2018-12-18T20:02:40.124Z,2.47
2018-12-18T20:05:43.394Z,2.31
2018-12-18T20:08:46.694Z,2.20
2018-12-18T20:11:49.948Z,2.04
2018-12-18T20:14:53.161Z,2.10
2018-12-18T20:17:56.431Z,2.05
2018-12-18T20:20:59.689Z,2.06
2018-12-18T20:24:02.941Z,2.00
2018-12-18T20:27:06.181Z,1.89
2018-12-18T20:30:09.422Z,2.01
2018-12-18T20:33:12.741Z,1.98
2018-12-18T20:36:16.020Z,2.05
2018-12-18T20:39:19.262Z,2.01
2018-12-18T20:42:22.517Z,1.99
2018-12-18T20:45:25.753Z,1.95
2018-12-18T20:48:28.984Z,1.90
2018-12-18T20:51:32.220Z,1.79
2018-12-18T20:54:35.447Z,1.81
2018-12-18T20:57:38.689Z,1.79
2018-12-18T21:00:41.915Z,1.85
2018-12-18T21:03:45.170Z,1.95
2018-12-18T21:06:48.425Z,1.71
2018-12-18T21:09:51.663Z,1.60
2018-12-18T21:16:17.905Z,1.48
2018-12-18T21:19:21.188Z,1.44
2018-12-18T21:22:24.434Z,1.47
2018-12-18T21:25:27.659Z,1.62
2018-12-18T21:28:31.040Z,1.63
2018-12-18T21:31:34.280Z,1.68
2018-12-18T21:34:37.898Z,1.79
2018-12-18T21:37:41.115Z,1.80
2018-12-18T21:40:44.403Z,1.84
2018-12-18T21:43:47.628Z,1.85
2018-12-18T21:46:50.865Z,1.77
2018-12-18T21:49:54.087Z,1.77
2018-12-18T21:52:57.368Z,1.70
2018-12-18T21:56:00.650Z,1.72
2018-12-18T21:59:03.930Z,1.81
2018-12-18T22:02:07.154Z,1.70
2018-12-18T22:05:10.380Z,1.59
2018-12-18T22:08:13.619Z,1.59
2018-12-18T22:11:16.855Z,1.58
2018-12-18T22:14:20.072Z,1.59
2018-12-18T22:17:23.301Z,1.60
2018-12-18T22:20:26.531Z,1.61
2018-12-18T22:23:29.772Z,1.54
2018-12-18T22:26:33.004Z,1.60
2018-12-18T22:29:36.230Z,1.66
2018-12-18T22:32:39.489Z,1.66
2018-12-18T22:35:42.713Z,1.73
2018-12-18T22:38:46.032Z,1.84
2018-12-18T22:41:49.305Z,1.96
2018-12-18T22:44:52.546Z,1.88
2018-12-18T22:47:55.776Z,1.79
2018-12-18T22:50:59.009Z,1.78
2018-12-18T22:54:02.286Z,1.68
2018-12-18T22:57:05.529Z,1.60
2018-12-18T23:03:31.145Z,1.39
2018-12-18T23:06:34.419Z,1.42
2018-12-18T23:09:37.641Z,1.40
2018-12-18T23:12:40.869Z,1.36
2018-12-18T23:15:44.106Z,1.36
2018-12-18T23:18:47.335Z,1.31
2018-12-18T23:21:50.557Z,1.33
2018-12-18T23:24:53.792Z,1.38
2018-12-18T23:27:57.064Z,1.40
2018-12-18T23:31:00.310Z,1.54
2018-12-18T23:34:03.562Z,1.46
2018-12-18T23:37:06.789Z,1.45
2018-12-18T23:40:10.294Z,1.50
2018-12-18T23:43:13.572Z,1.52
2018-12-18T23:46:16.796Z,1.61
2018-12-18T23:49:20.106Z,1.73
2018-12-18T23:52:23.518Z,1.75
2018-12-18T23:55:26.768Z,1.79
2018-12-18T23:58:30.016Z,1.67
